Time;durP1;ratioP1;P1;durP2;ratioP2;P2;SDS_P1;SDS_P2;PMS_P1;PMS_P2;Temp;Humidity;BMP_temperature;BMP_pressure;BME280_temperature;BME280_humidity;BME280_pressure;Samples;Min_cycle;Max_cycle;Signal;HPM_P1;HPM_P2
2022/01/23 00:02:27;;;;;;;30.88;19.30;;;;;;;6.18;82.35;103485.06;5053090;28;20044;-59
2022/01/23 00:04:53;;;;;;;29.33;18.75;;;;;;;6.20;82.40;103494.84;5052798;28;20033;-59
2022/01/23 00:07:20;;;;;;;29.35;18.38;;;;;;;6.22;82.82;103487.13;5052647;28;20028;-59
2022/01/23 00:12:33;;;;;;;29.52;18.60;;;;;;;6.20;82.83;103494.84;5054653;28;20101;-59
2022/01/23 00:17:43;;;;;;;29.38;17.75;;;;;;;6.20;82.25;103480.81;5056606;28;20040;-59
2022/01/23 00:20:11;;;;;;;29.58;18.48;;;;;;;6.20;82.33;103479.09;5055976;28;20029;-60
2022/01/23 00:22:49;;;;;;;24.20;16.88;;;;;;;6.24;82.91;103475.00;5056373;28;20577;-59
2022/01/23 00:30:44;;;;;;;27.65;18.00;;;;;;;6.24;82.28;103472.38;5056503;28;20071;-59
2022/01/23 00:33:11;;;;;;;27.85;18.20;;;;;;;6.21;82.32;103469.50;5038539;28;20033;-59
2022/01/23 00:35:38;;;;;;;27.77;18.38;;;;;;;6.15;81.95;103471.72;5056182;28;20025;-60
2022/01/23 00:38:06;;;;;;;27.88;17.10;;;;;;;6.14;82.34;103469.91;5055774;28;20048;-59
2022/01/23 00:40:34;;;;;;;26.63;18.63;;;;;;;6.18;82.57;103472.84;5056342;28;20207;-59
2022/01/23 00:43:00;;;;;;;26.02;18.00;;;;;;;6.21;82.43;103470.44;5056112;28;20151;-59
2022/01/23 00:45:31;;;;;;;27.55;17.33;;;;;;;6.26;82.47;103470.78;5056047;28;20052;-59
2022/01/23 00:48:01;;;;;;;26.08;16.08;;;;;;;6.30;82.16;103469.28;5056117;28;20025;-59
2022/01/23 00:50:36;;;;;;;29.48;18.63;;;;;;;6.31;82.29;103473.72;5056020;28;20032;-59
2022/01/23 00:53:04;;;;;;;29.58;17.70;;;;;;;6.25;82.22;103466.31;5055911;28;20104;-59
2022/01/23 00:55:30;;;;;;;27.65;18.27;;;;;;;6.29;81.77;103463.09;5037990;28;20025;-59
2022/01/23 00:57:55;;;;;;;24.15;16.85;;;;;;;6.28;82.39;103470.06;5055752;28;20074;-60
2022/01/23 01:00:21;;;;;;;29.38;18.60;;;;;;;6.26;82.33;103465.53;5055806;28;20039;-59
2022/01/23 01:02:47;;;;;;;28.27;18.17;;;;;;;6.30;82.21;103474.53;5055856;28;20021;-58
2022/01/23 01:05:13;;;;;;;28.20;18.45;;;;;;;6.34;81.95;103471.28;5055839;28;20478;-59
2022/01/23 01:07:39;;;;;;;32.13;18.27;;;;;;;6.38;81.74;103463.75;5055535;28;20529;-59
2022/01/23 01:10:11;;;;;;;26.10;18.75;;;;;;;6.39;82.00;103460.31;5055653;28;20110;-62
2022/01/23 01:12:45;;;;;;;;;;;;;;;6.43;81.41;103457.09;5055945;28;20665;-63
2022/01/23 01:34:01;;;;;;;27.52;17.48;;;;;;;6.30;82.01;103457.06;4993768;28;20038;-61
2022/01/23 01:36:36;;;;;;;26.95;16.92;;;;;;;6.28;82.21;103461.28;4993726;28;20046;-61
2022/01/23 01:39:06;;;;;;;30.58;17.90;;;;;;;6.23;81.93;103470.56;4993724;28;20559;-62
2022/01/23 01:41:35;;;;;;;28.95;18.92;;;;;;;6.20;81.94;103478.19;4993743;28;20050;-61
2022/01/23 01:44:02;;;;;;;29.17;18.52;;;;;;;6.20;81.97;103470.31;4993658;28;20142;-61
2022/01/23 01:46:28;;;;;;;30.15;17.90;;;;;;;6.21;82.39;103475.69;4993386;28;20065;-62
2022/01/23 01:48:54;;;;;;;27.33;18.17;;;;;;;6.21;82.16;103486.22;4993669;28;20048;-61
2022/01/23 01:51:20;;;;;;;30.90;18.75;;;;;;;6.20;82.51;103497.47;4993548;28;20454;-62
2022/01/23 01:53:56;;;;;;;31.13;18.83;;;;;;;6.11;82.70;103486.34;4993675;28;20034;-62
2022/01/23 01:56:22;;;;;;;34.03;18.45;;;;;;;6.05;82.92;103478.03;4993580;28;20373;-62
2022/01/23 02:09:24;;;;;;;27.25;17.35;;;;;;;6.34;82.17;103487.97;5054884;28;20059;-62
2022/01/23 02:12:23;;;;;;;28.90;17.90;;;;;;;6.34;82.01;103481.78;5054750;28;20047;-62
2022/01/23 02:52:11;;;;;;;28.38;15.90;;;;;;;6.40;81.45;103438.50;5054081;28;20055;-59
2022/01/23 02:54:51;;;;;;;;;;;;;;;6.44;81.76;103437.00;5054170;28;20493;-59
2022/01/23 02:57:22;;;;;;;24.80;15.00;;;;;;;6.36;81.88;103435.56;5053628;28;19935;-59
2022/01/23 02:59:50;;;;;;;20.90;14.35;;;;;;;6.36;81.35;103433.84;5053582;28;20078;-59
2022/01/23 03:05:02;;;;;;;27.42;15.60;;;;;;;6.35;81.42;103434.66;5053572;28;20123;-58
2022/01/23 03:10:26;;;;;;;26.08;15.63;;;;;;;6.41;81.46;103442.94;5022589;28;20471;-59
2022/01/23 03:28:49;;;;;;;25.23;14.85;;;;;;;6.27;82.68;103456.84;5053437;28;20037;-58
2022/01/23 03:31:24;;;;;;;32.65;16.23;;;;;;;6.32;82.13;103462.41;5053015;28;20036;-59
2022/01/23 03:33:49;;;;;;;25.77;15.57;;;;;;;6.33;81.91;103452.00;5053156;28;20032;-59
2022/01/23 03:36:15;;;;;;;20.67;14.43;;;;;;;6.42;82.12;103459.59;5053160;28;20025;-59
2022/01/23 03:38:42;;;;;;;24.25;15.27;;;;;;;6.43;81.60;103456.19;5053116;28;20124;-59
2022/01/23 03:41:07;;;;;;;24.75;14.88;;;;;;;6.44;81.92;103458.91;5052958;28;20017;-59
2022/01/23 03:43:37;;;;;;;25.13;14.95;;;;;;;6.47;81.20;103453.88;5053043;28;20036;-58
2022/01/23 03:51:15;;;;;;;21.90;14.68;;;;;;;6.51;81.21;103461.19;5053063;28;20033;-59
2022/01/23 03:53:41;;;;;;;21.45;14.73;;;;;;;6.50;81.14;103456.72;5052901;28;20033;-59
2022/01/23 03:56:07;;;;;;;25.20;15.55;;;;;;;6.51;80.93;103468.16;5052863;28;20466;-59
2022/01/23 03:58:33;;;;;;;23.13;15.00;;;;;;;6.50;81.19;103461.97;5052896;28;20056;-59
2022/01/23 04:00:59;;;;;;;23.38;14.85;;;;;;;6.47;80.87;103468.75;5052782;28;20501;-59
2022/01/23 04:03:25;;;;;;;22.83;14.52;;;;;;;6.46;80.62;103462.53;5052743;28;20033;-59
2022/01/23 04:05:50;;;;;;;25.02;15.85;;;;;;;6.49;81.58;103467.13;5035001;28;20029;-59
2022/01/23 04:08:18;;;;;;;25.48;14.65;;;;;;;6.50;81.59;103464.59;5034884;28;20033;-59
2022/01/23 04:10:43;;;;;;;21.30;13.52;;;;;;;6.55;80.85;103467.53;5052807;28;20037;-59
2022/01/23 04:16:09;;;;;;;23.73;15.85;;;;;;;6.53;81.13;103477.94;5052607;28;20029;-59
2022/01/23 04:35:44;;;;;;;26.85;15.50;;;;;;;6.53;80.32;103477.94;5052750;28;20072;-61
2022/01/23 04:46:04;;;;;;;22.27;13.50;;;;;;;6.50;81.04;103474.19;5052862;28;20040;-61
2022/01/23 04:59:35;;;;;;;22.85;14.98;;;;;;;6.59;81.08;103479.16;5054442;28;20533;-62
2022/01/23 05:02:25;;;;;;;24.25;15.15;;;;;;;6.59;80.99;103477.44;5055912;28;20159;-61
2022/01/23 05:04:50;;;;;;;24.05;14.55;;;;;;;6.58;80.45;103486.13;5055523;28;20052;-61
2022/01/23 05:07:17;;;;;;;25.20;15.68;;;;;;;6.64;80.60;103483.03;5055637;28;20477;-61
2022/01/23 05:09:42;;;;;;;24.13;16.13;;;;;;;6.70;80.52;103475.56;5055777;28;20103;-62
2022/01/23 05:12:11;;;;;;;26.30;16.33;;;;;;;6.69;80.76;103484.28;5055821;28;20052;-59
2022/01/23 05:14:42;;;;;;;25.83;16.13;;;;;;;6.68;80.71;103482.41;5055901;28;20151;-59
2022/01/23 05:17:11;;;;;;;24.02;15.45;;;;;;;6.61;80.64;103473.22;5055766;28;20036;-59
2022/01/23 05:19:38;;;;;;;26.80;16.08;;;;;;;6.58;80.91;103466.84;5055577;28;20021;-59
2022/01/23 05:24:49;;;;;;;25.48;16.42;;;;;;;6.52;80.19;103475.22;5055257;28;20056;-59
2022/01/23 05:27:14;;;;;;;28.77;16.92;;;;;;;6.45;80.75;103473.88;5055341;28;20025;-59
2022/01/23 05:29:40;;;;;;;27.48;16.77;;;;;;;6.41;80.85;103474.47;5055526;28;20029;-59
2022/01/23 05:32:08;;;;;;;27.23;16.48;;;;;;;6.39;81.03;103469.91;5055345;28;20020;-59
2022/01/23 05:34:34;;;;;;;28.83;17.08;;;;;;;6.35;81.00;103471.41;5055237;28;20466;-59
2022/01/23 05:36:59;;;;;;;27.15;17.42;;;;;;;6.34;81.67;103476.53;5055138;28;20066;-59
2022/01/23 05:39:27;;;;;;;27.25;17.35;;;;;;;6.38;81.53;103481.19;5054908;28;20041;-59
2022/01/23 05:41:54;;;;;;;31.52;18.10;;;;;;;6.40;81.21;103477.91;5055136;28;20033;-59
2022/01/23 05:44:20;;;;;;;26.42;17.25;;;;;;;6.40;81.34;103484.88;5055095;28;20386;-58
2022/01/23 05:46:46;;;;;;;32.17;18.25;;;;;;;6.38;81.63;103486.44;5055024;28;20078;-59
2022/01/23 05:49:11;;;;;;;29.70;17.35;;;;;;;6.38;81.75;103478.56;5055046;28;20029;-59
2022/01/23 05:51:37;;;;;;;30.08;17.52;;;;;;;6.28;81.46;103477.03;5054879;28;20032;-58
2022/01/23 05:54:03;;;;;;;29.70;18.20;;;;;;;6.24;81.39;103472.38;5054798;28;20037;-59
2022/01/23 05:56:28;;;;;;;29.23;17.80;;;;;;;6.24;81.60;103477.63;5054683;28;20375;-59
2022/01/23 05:58:54;;;;;;;26.45;16.45;;;;;;;6.26;82.01;103471.69;5054862;28;20100;-59
2022/01/23 06:01:20;;;;;;;28.15;17.50;;;;;;;6.30;81.97;103469.28;5054734;28;20470;-62
2022/01/23 06:03:45;;;;;;;29.60;17.27;;;;;;;6.35;81.78;103475.75;5054658;28;20112;-61
2022/01/23 06:06:11;;;;;;;29.88;18.10;;;;;;;6.34;82.07;103472.22;5054845;28;20021;-61
2022/01/23 06:08:36;;;;;;;30.42;18.67;;;;;;;6.30;81.71;103479.78;5054599;28;20025;-61
2022/01/23 06:11:02;;;;;;;33.10;18.60;;;;;;;6.24;82.50;103477.63;5053986;28;20056;-61
2022/01/23 06:13:27;;;;;;;28.02;17.85;;;;;;;6.21;82.16;103477.38;5054453;28;20027;-61
2022/01/23 06:15:54;;;;;;;32.83;17.40;;;;;;;6.21;82.10;103473.06;5054548;28;20028;-61
2022/01/23 06:18:19;;;;;;;26.52;17.13;;;;;;;6.25;81.98;103477.75;5054474;28;20035;-61
2022/01/23 06:20:45;;;;;;;29.77;17.58;;;;;;;6.27;81.06;103480.47;5054402;28;20033;-62
2022/01/23 06:23:12;;;;;;;30.02;18.52;;;;;;;6.31;81.73;103481.59;5054165;28;20067;-61
2022/01/23 06:25:41;;;;;;;29.48;18.88;;;;;;;6.29;81.77;103489.34;5054299;28;20151;-61
2022/01/23 06:28:08;;;;;;;31.13;18.15;;;;;;;6.25;81.69;103484.69;5054220;28;20032;-61
2022/01/23 06:30:34;;;;;;;32.50;18.88;;;;;;;6.25;82.01;103480.38;5054171;28;20029;-59
2022/01/23 06:33:00;;;;;;;29.88;18.17;;;;;;;6.30;82.36;103479.78;5054089;28;20029;-59
2022/01/23 06:35:27;;;;;;;28.88;17.02;;;;;;;6.26;81.97;103483.91;5054038;28;20070;-58
2022/01/23 06:37:52;;;;;;;29.77;18.02;;;;;;;6.25;81.67;103480.38;5053881;28;20028;-59
2022/01/23 06:40:18;;;;;;;30.92;17.75;;;;;;;6.27;81.67;103486.63;5053676;28;20049;-59
2022/01/23 06:42:44;;;;;;;27.77;17.27;;;;;;;6.22;81.69;103485.41;5053985;28;20415;-59
2022/01/23 06:45:09;;;;;;;30.08;17.75;;;;;;;6.12;82.11;103492.50;5053814;28;20070;-59
2022/01/23 06:47:34;;;;;;;32.58;17.65;;;;;;;6.12;82.69;103493.41;5053808;28;20382;-59
2022/01/23 06:50:00;;;;;;;30.17;17.77;;;;;;;6.14;82.83;103498.78;5053783;28;20029;-59
2022/01/23 06:52:25;;;;;;;27.70;17.90;;;;;;;6.20;82.98;103496.56;5053733;28;20045;-59
2022/01/23 06:54:51;;;;;;;28.63;18.63;;;;;;;6.20;82.52;103496.56;5053712;28;20096;-59
2022/01/23 06:57:16;;;;;;;29.33;17.50;;;;;;;6.23;82.94;103499.44;5053559;28;20455;-58
2022/01/23 06:59:42;;;;;;;30.27;17.85;;;;;;;6.28;81.98;103496.31;5053586;28;20463;-59
2022/01/23 07:02:08;;;;;;;32.60;17.63;;;;;;;6.30;82.15;103503.41;5053753;28;20024;-59
2022/01/23 07:04:33;;;;;;;30.88;17.55;;;;;;;6.33;82.60;103506.25;5053455;28;20032;-58
2022/01/23 07:06:59;;;;;;;28.98;18.50;;;;;;;6.32;82.05;103510.56;5053653;28;20021;-58
2022/01/23 07:09:24;;;;;;;29.50;17.40;;;;;;;6.35;81.64;103521.31;5053372;28;20391;-59
2022/01/23 07:11:50;;;;;;;28.60;17.27;;;;;;;6.39;81.94;103517.19;5053296;28;20029;-59
2022/01/23 07:14:15;;;;;;;28.75;17.13;;;;;;;6.42;81.95;103515.66;5053454;28;20501;-59
2022/01/23 07:16:41;;;;;;;29.50;18.20;;;;;;;6.47;81.38;103516.94;5053405;28;20079;-61
2022/01/23 07:19:06;;;;;;;31.05;17.67;;;;;;;6.49;80.89;103525.81;5053337;28;20021;-61
2022/01/23 07:21:33;;;;;;;29.98;17.48;;;;;;;6.53;81.40;103526.94;5052454;28;20453;-61
2022/01/23 07:23:58;;;;;;;29.00;17.63;;;;;;;6.55;81.07;103527.03;5053297;28;20021;-62
2022/01/23 07:26:27;;;;;;;29.80;18.33;;;;;;;6.56;81.14;103527.16;5053476;28;20027;-62
2022/01/23 07:28:54;;;;;;;30.50;18.38;;;;;;;6.60;81.19;103531.84;5053351;28;20040;-61
2022/01/23 07:34:06;;;;;;;29.40;17.98;;;;;;;6.65;80.57;103542.66;5053190;28;20033;-61
2022/01/23 07:36:32;;;;;;;27.38;17.20;;;;;;;6.68;80.27;103535.91;5052931;28;20024;-62
2022/01/23 07:38:57;;;;;;;33.80;19.10;;;;;;;6.69;80.35;103550.88;5052924;28;20083;-61
2022/01/23 07:41:23;;;;;;;31.95;19.25;;;;;;;6.72;80.26;103542.25;5052954;28;20029;-59
2022/01/23 07:43:49;;;;;;;31.85;18.95;;;;;;;6.71;80.26;103549.25;5053044;28;20035;-59
2022/01/23 07:46:16;;;;;;;32.72;18.77;;;;;;;6.68;80.52;103549.06;5052911;28;20021;-59
2022/01/23 07:48:41;;;;;;;30.50;18.25;;;;;;;6.68;80.85;103553.38;5052964;28;20036;-59
2022/01/23 07:51:07;;;;;;;31.77;19.30;;;;;;;6.65;80.56;103561.97;5053005;28;20104;-61
2022/01/23 07:53:32;;;;;;;29.55;18.83;;;;;;;6.63;80.26;103553.03;5053012;28;20218;-62
2022/01/23 07:55:58;;;;;;;32.38;19.05;;;;;;;6.63;80.24;103554.75;5052666;28;20021;-62
2022/01/23 07:58:23;;;;;;;31.38;18.73;;;;;;;6.63;80.58;103560.00;5052699;28;20098;-61
2022/01/23 08:00:48;;;;;;;35.15;20.33;;;;;;;6.62;80.77;103564.38;5052470;28;20459;-58
2022/01/23 08:03:14;;;;;;;31.98;19.17;;;;;;;6.64;80.65;103560.16;5052463;28;20028;-59
2022/01/23 08:05:40;;;;;;;32.20;19.92;;;;;;;6.69;80.24;103560.47;5052400;28;20528;-59
2022/01/23 08:08:06;;;;;;;30.85;19.23;;;;;;;6.70;80.56;103562.28;5052386;28;20056;-59
2022/01/23 08:10:32;;;;;;;33.78;19.67;;;;;;;6.67;80.11;103559.44;5052604;28;20056;-60
2022/01/23 08:12:58;;;;;;;32.08;19.35;;;;;;;6.68;80.79;103563.88;5052615;28;20083;-58
2022/01/23 08:15:23;;;;;;;34.60;20.38;;;;;;;6.66;80.69;103558.53;5052702;28;20036;-59
2022/01/23 08:17:49;;;;;;;31.55;19.95;;;;;;;6.62;80.66;103566.09;5052899;28;20040;-59
2022/01/23 08:20:14;;;;;;;34.15;20.70;;;;;;;6.57;80.49;103571.00;5052567;28;20119;-59
2022/01/23 08:22:40;;;;;;;31.67;20.15;;;;;;;6.59;81.10;103561.50;5052478;28;20059;-59
2022/01/23 08:25:06;;;;;;;36.03;21.38;;;;;;;6.63;80.33;103565.28;5052561;28;20029;-61
2022/01/23 08:27:31;;;;;;;33.33;20.27;;;;;;;6.66;80.34;103563.78;5052383;28;20387;-62
2022/01/23 08:29:58;;;;;;;34.50;21.00;;;;;;;6.69;80.71;103569.25;5052730;28;20025;-59
2022/01/23 08:32:24;;;;;;;32.88;19.80;;;;;;;6.72;80.31;103566.84;5052894;28;20025;-58
2022/01/23 08:34:50;;;;;;;36.30;20.35;;;;;;;6.76;80.46;103575.84;5056278;28;20032;-60
2022/01/23 08:37:15;;;;;;;36.88;21.25;;;;;;;6.78;80.33;103574.25;5056212;28;20025;-59
2022/01/23 08:39:41;;;;;;;33.13;20.73;;;;;;;6.81;80.42;103579.72;5055982;28;20052;-59
2022/01/23 08:42:12;;;;;;;39.67;20.60;;;;;;;6.84;80.34;103582.53;5056085;28;20033;-59
2022/01/23 08:44:38;;;;;;;35.80;21.30;;;;;;;6.81;80.10;103582.34;5056156;28;20477;-59
2022/01/23 08:47:05;;;;;;;36.47;21.02;;;;;;;6.82;80.29;103583.25;5056190;28;20028;-58
2022/01/23 08:49:31;;;;;;;38.92;22.05;;;;;;;6.81;80.15;103589.28;5056140;28;20029;-61
2022/01/23 08:51:58;;;;;;;38.15;21.02;;;;;;;6.78;80.39;103585.66;5056003;28;20036;-61
2022/01/23 08:54:25;;;;;;;38.53;20.80;;;;;;;6.83;80.42;103590.34;5055980;28;20103;-61
2022/01/23 08:56:51;;;;;;;39.42;21.20;;;;;;;6.81;80.32;103594.56;5055829;28;20475;-62
2022/01/23 08:59:16;;;;;;;35.40;21.00;;;;;;;6.77;80.22;103597.00;5055948;28;20032;-61
2022/01/23 09:01:42;;;;;;;33.70;20.40;;;;;;;6.77;80.58;103599.63;5055777;28;20021;-59
2022/01/23 09:04:08;;;;;;;32.90;20.73;;;;;;;6.76;80.58;103595.13;5055737;28;20060;-61
2022/01/23 09:06:38;;;;;;;38.13;20.60;;;;;;;6.75;80.69;103600.28;5055793;28;20095;-59
2022/01/23 09:09:06;;;;;;;35.60;21.10;;;;;;;6.74;80.88;103598.47;5055711;28;20024;-59
2022/01/23 09:14:10;;;;;;;38.58;22.60;;;;;;;6.78;80.90;103595.25;5075841;28;20035;-59
2022/01/23 09:16:43;;;;;;;38.22;21.75;;;;;;;6.77;81.12;103597.00;5075338;28;20082;-58
2022/01/23 09:19:10;;;;;;;35.88;21.35;;;;;;;6.75;81.09;103589.78;5075362;28;20023;-61
2022/01/23 09:21:38;;;;;;;36.88;21.77;;;;;;;6.76;81.10;103584.63;5075356;28;20021;-61
2022/01/23 09:24:05;;;;;;;35.60;21.23;;;;;;;6.81;80.95;103584.03;5075236;28;20469;-60
2022/01/23 09:26:31;;;;;;;36.65;21.90;;;;;;;6.85;80.73;103586.06;5075346;28;20028;-60
2022/01/23 09:29:00;;;;;;;38.08;20.83;;;;;;;6.92;79.81;103591.88;5075197;28;20027;-61
2022/01/23 09:31:33;;;;;;;37.53;21.60;;;;;;;6.94;80.46;103590.28;5075128;28;20108;-60
2022/01/23 09:33:59;;;;;;;39.78;21.77;;;;;;;6.97;79.87;103584.31;5075200;28;20021;-60
2022/01/23 09:36:25;;;;;;;37.78;21.45;;;;;;;6.97;80.08;103589.56;5075009;28;20077;-60
2022/01/23 09:38:51;;;;;;;37.38;21.40;;;;;;;6.97;79.71;103593.09;5072143;28;20135;-61
2022/01/23 09:41:20;;;;;;;38.80;22.30;;;;;;;7.02;80.20;103601.31;5055029;28;20126;-61
2022/01/23 09:43:47;;;;;;;38.88;21.75;;;;;;;7.04;80.38;103599.72;5054982;28;20029;-61
2022/01/23 09:46:13;;;;;;;40.42;23.65;;;;;;;7.07;79.99;103597.31;5056604;28;20025;-60
2022/01/23 09:48:42;;;;;;;36.55;21.73;;;;;;;7.10;80.24;103604.47;5054893;28;20107;-60
2022/01/23 09:51:08;;;;;;;41.90;24.00;;;;;;;7.09;79.98;103603.56;5054873;28;20029;-60
2022/01/23 09:53:34;;;;;;;39.92;23.23;;;;;;;7.11;79.83;103608.91;5054846;28;20029;-61
2022/01/23 09:56:05;;;;;;;39.20;23.40;;;;;;;7.15;80.25;103610.94;5059184;28;20517;-61
2022/01/23 09:58:32;;;;;;;40.03;23.38;;;;;;;7.14;80.38;103606.50;5074791;28;20040;-62
2022/01/23 10:00:59;;;;;;;36.53;22.70;;;;;;;7.14;80.31;103617.94;5074752;28;20025;-62
2022/01/23 10:03:27;;;;;;;41.85;23.17;;;;;;;7.16;79.97;103613.72;5074471;28;20167;-62
2022/01/23 10:05:55;;;;;;;36.20;22.92;;;;;;;7.23;80.17;103612.41;5074535;28;20429;-65
2022/01/23 10:08:23;;;;;;;37.78;22.35;;;;;;;7.27;79.51;103609.19;5061216;28;20028;-62
2022/01/23 10:10:53;;;;;;;41.42;23.65;;;;;;;7.30;79.20;103616.38;5054747;28;20044;-67
2022/01/23 10:13:22;;;;;;;36.58;23.02;;;;;;;7.31;79.92;103612.94;5054485;28;20052;-66
2022/01/23 10:15:48;;;;;;;38.67;24.25;;;;;;;7.33;79.85;103621.84;5066218;28;20029;-62
2022/01/23 10:18:14;;;;;;;38.15;22.85;;;;;;;7.32;79.40;103605.13;5074419;28;20043;-62
2022/01/23 10:20:40;;;;;;;40.50;23.02;;;;;;;7.34;79.29;103613.16;5074746;28;20024;-63
2022/01/23 10:23:05;;;;;;;40.33;22.98;;;;;;;7.31;79.05;103605.03;5074243;28;20021;-65
2022/01/23 10:25:32;;;;;;;39.17;23.42;;;;;;;7.26;79.71;103605.63;5074234;28;20029;-63
2022/01/23 10:28:08;;;;;;;39.78;23.88;;;;;;;7.28;79.29;103608.41;5074101;28;20029;-65
2022/01/23 10:30:44;;;;;;;42.35;23.35;;;;;;;7.28;79.59;103600.50;5073927;28;20040;-62
2022/01/23 10:33:14;;;;;;;41.30;23.52;;;;;;;7.30;79.80;103597.97;5074049;28;20033;-64
2022/01/23 10:35:53;;;;;;;39.30;22.85;;;;;;;7.33;79.93;103599.09;5073836;28;20090;-68
2022/01/23 10:38:19;;;;;;;39.33;23.42;;;;;;;7.33;78.80;103601.72;5073812;28;20048;-67
2022/01/23 10:40:53;;;;;;;39.00;22.45;;;;;;;7.39;78.68;103601.22;5073691;28;20053;-65
2022/01/23 10:48:48;;;;;;;39.70;23.20;;;;;;;7.47;79.25;103602.66;5073938;28;20051;-61
2022/01/23 10:51:36;;;;;;;41.30;23.63;;;;;;;7.44;78.13;103595.44;5073750;28;20032;-61
2022/01/23 10:54:16;;;;;;;41.03;23.80;;;;;;;7.50;79.47;103595.88;5073729;28;20517;-61
2022/01/23 10:56:59;;;;;;;41.25;22.88;;;;;;;7.56;78.68;103595.38;5073584;28;20032;-62
2022/01/23 10:59:25;;;;;;;41.67;23.83;;;;;;;7.53;78.19;103603.97;5073560;28;20424;-60
2022/01/23 11:02:05;;;;;;;42.33;24.88;;;;;;;7.51;79.30;103595.06;5073586;28;20550;-61
2022/01/23 11:04:34;;;;;;;41.92;24.17;;;;;;;7.52;79.07;103593.34;5073598;28;20029;-61
2022/01/23 11:07:04;;;;;;;41.67;24.67;;;;;;;7.51;79.25;103597.69;5055160;28;20099;-60
2022/01/23 11:09:32;;;;;;;38.33;23.15;;;;;;;7.54;79.16;103599.63;5073427;28;20033;-63
2022/01/23 11:12:03;;;;;;;43.92;25.45;;;;;;;7.54;79.18;103594.38;5073228;28;20028;-65
2022/01/23 11:17:22;;;;;;;45.75;24.15;;;;;;;7.53;79.58;103587.25;5073553;28;20405;-63
2022/01/23 11:19:53;;;;;;;40.28;23.40;;;;;;;7.56;78.93;103587.47;5056466;28;20032;-62
2022/01/23 11:22:24;;;;;;;44.22;24.95;;;;;;;7.51;79.00;103587.16;5073230;28;20533;-62
2022/01/23 11:24:50;;;;;;;46.45;24.70;;;;;;;7.49;79.65;103583.53;5073399;28;20025;-64
2022/01/23 11:27:18;;;;;;;38.17;23.48;;;;;;;7.52;79.35;103585.44;5073375;28;20114;-66
2022/01/23 11:30:12;;;;;;;37.88;23.08;;;;;;;7.57;79.78;103583.13;5073240;28;20036;-65
2022/01/23 11:32:41;;;;;;;41.53;24.33;;;;;;;7.62;79.64;103582.63;5073354;28;20035;-60
2022/01/23 11:35:13;;;;;;;40.58;24.00;;;;;;;7.66;79.66;103579.38;5073082;28;20112;-66
2022/01/23 11:37:51;;;;;;;40.55;23.63;;;;;;;7.71;79.59;103574.44;5073153;28;20075;-61
2022/01/23 11:50:42;;;;;;;41.45;24.00;;;;;;;7.65;78.45;103572.31;5073297;28;20158;-66
2022/01/23 11:53:55;;;;;;;41.70;24.67;;;;;;;7.57;80.00;103562.97;5072846;28;20478;-62
2022/01/23 11:56:30;;;;;;;42.47;23.95;;;;;;;7.59;79.76;103569.28;5065687;28;20021;-63
2022/01/23 11:59:32;;;;;;;43.55;24.42;;;;;;;7.68;79.80;103567.25;5057688;28;20033;-61
2022/01/23 12:02:14;;;;;;;42.42;24.25;;;;;;;7.73;79.64;103565.81;5072745;28;20028;-60
2022/01/23 12:04:42;;;;;;;42.20;23.98;;;;;;;7.75;79.28;103561.59;5072843;28;20047;-60
2022/01/23 12:07:11;;;;;;;40.58;21.77;;;;;;;7.82;78.62;103565.53;5062810;28;20039;-61
2022/01/23 12:09:38;;;;;;;34.25;20.33;;;;;;;7.88;78.02;103552.78;5076692;28;20512;-60
2022/01/23 12:17:17;;;;;;;39.17;22.02;;;;;;;7.89;79.02;103546.69;5076850;28;20036;-60
2022/01/23 12:19:57;;;;;;;40.05;23.38;;;;;;;7.89;78.08;103546.69;5076660;28;20052;-60
2022/01/23 12:22:28;;;;;;;43.50;23.08;;;;;;;7.86;79.42;103549.13;5076567;28;20024;-62
2022/01/23 12:24:57;;;;;;;37.28;21.08;;;;;;;7.90;78.76;103540.59;5056626;28;20034;-60
2022/01/23 12:27:26;;;;;;;39.28;22.10;;;;;;;7.90;78.92;103537.06;5056610;28;20025;-60
2022/01/23 12:29:55;;;;;;;38.22;22.33;;;;;;;7.93;78.72;103532.91;5056538;28;20029;-60
2022/01/23 12:32:29;;;;;;;39.60;21.90;;;;;;;7.96;78.55;103542.72;5056478;28;20059;-61
2022/01/23 12:35:04;;;;;;;38.33;22.20;;;;;;;7.93;78.44;103530.28;5056343;28;20430;-60
2022/01/23 12:38:00;;;;;;;36.15;21.48;;;;;;;7.97;78.29;103534.94;5056066;28;20131;-60
2022/01/23 12:40:31;;;;;;;37.85;22.13;;;;;;;7.94;77.98;103533.81;5061253;28;20048;-60
2022/01/23 12:43:11;;;;;;;35.95;21.27;;;;;;;8.00;78.57;103537.75;5065138;28;20041;-60
2022/01/23 12:45:47;;;;;;;40.90;21.77;;;;;;;8.02;78.05;103533.50;5048751;28;20041;-60
2022/01/23 12:48:25;;;;;;;35.97;20.98;;;;;;;8.04;77.83;103523.06;5057543;28;20398;-60
2022/01/23 12:50:54;;;;;;;35.05;21.35;;;;;;;8.05;77.94;103527.53;5065158;28;20123;-61
2022/01/23 12:53:19;;;;;;;36.95;21.80;;;;;;;8.07;77.33;103527.63;5071389;28;20131;-61
2022/01/23 12:56:30;;;;;;;35.78;21.90;;;;;;;8.08;78.09;103522.44;5064779;28;20057;-63
2022/01/23 12:59:12;;;;;;;33.72;21.35;;;;;;;8.06;76.84;103521.44;4975141;28;20484;-60
2022/01/23 13:01:43;;;;;;;35.13;21.75;;;;;;;8.03;77.75;103510.72;4974580;28;20122;-60
2022/01/23 13:04:09;;;;;;;38.25;21.58;;;;;;;8.04;77.11;103513.44;4975003;28;20070;-63
2022/01/23 13:06:39;;;;;;;34.75;21.25;;;;;;;8.07;77.17;103509.19;4974744;28;20176;-62
2022/01/23 13:09:29;;;;;;;37.45;22.65;;;;;;;8.04;77.68;103502.91;4974841;28;20043;-61
2022/01/23 13:12:03;;;;;;;32.63;20.63;;;;;;;8.08;77.82;103505.75;4975041;28;20114;-62
2022/01/23 13:31:53;;;;;;;35.13;21.63;;;;;;;8.04;77.71;103500.25;4922625;28;20036;-64
2022/01/23 13:34:41;;;;;;;37.37;21.73;;;;;;;8.00;77.53;103495.63;4974552;28;20430;-65
2022/01/23 13:37:13;;;;;;;36.53;21.70;;;;;;;7.99;78.25;103496.44;4974225;28;20133;-63
2022/01/23 13:39:58;;;;;;;37.63;21.40;;;;;;;8.04;77.88;103500.25;4973921;28;20524;-62
2022/01/23 13:53:34;;;;;;;33.28;20.55;;;;;;;8.12;76.41;103508.66;4974036;28;20027;-63
2022/01/23 13:58:52;;;;;;;34.88;19.73;;;;;;;8.21;76.77;103490.78;4974431;28;20077;-63
2022/01/23 14:03:50;;;;;;;38.47;21.20;;;;;;;8.27;76.54;103478.03;4984465;28;20497;-63
2022/01/23 14:06:16;;;;;;;33.72;20.58;;;;;;;8.31;76.62;103483.47;5054607;28;20060;-61
2022/01/23 14:08:58;;;;;;;32.50;19.50;;;;;;;8.33;75.99;103472.22;5054552;28;20367;-63
2022/01/23 14:11:27;;;;;;;34.17;20.15;;;;;;;8.38;75.16;103477.81;5054647;28;20070;-64
2022/01/23 14:13:53;;;;;;;32.92;19.80;;;;;;;8.38;75.08;103469.91;5054491;28;20033;-62
2022/01/23 14:16:26;;;;;;;31.30;19.70;;;;;;;8.42;75.56;103475.47;5054654;28;20025;-65
2022/01/23 14:18:51;;;;;;;35.80;20.48;;;;;;;8.38;75.56;103477.81;5054409;28;20028;-62
2022/01/23 14:21:19;;;;;;;33.00;20.63;;;;;;;8.37;75.27;103478.63;5054404;28;20028;-62
2022/01/23 14:23:54;;;;;;;34.97;20.00;;;;;;;8.36;75.51;103482.97;5054233;28;20035;-64
2022/01/23 14:26:20;;;;;;;32.45;19.98;;;;;;;8.33;74.97;103477.50;5054503;28;20111;-63
2022/01/23 14:28:51;;;;;;;35.72;20.20;;;;;;;8.31;75.85;103488.72;5054125;28;20039;-60
2022/01/23 14:31:22;;;;;;;34.58;20.13;;;;;;;8.30;76.23;103493.09;5053804;28;20025;-64
2022/01/23 14:33:53;;;;;;;33.88;21.05;;;;;;;8.31;75.51;103487.03;5054136;28;20111;-63
2022/01/23 14:36:24;;;;;;;35.83;19.88;;;;;;;8.33;75.92;103484.50;5054087;28;20021;-59
2022/01/23 14:38:57;;;;;;;33.28;19.80;;;;;;;8.35;75.47;103490.75;5053923;28;20025;-64
2022/01/23 14:41:24;;;;;;;33.90;19.33;;;;;;;8.35;75.70;103494.31;5056345;28;20478;-61
2022/01/23 14:43:50;;;;;;;31.42;18.77;;;;;;;8.35;75.42;103493.38;5053828;28;20051;-61
2022/01/23 14:46:16;;;;;;;31.33;18.88;;;;;;;8.34;74.45;103495.09;5053602;28;20486;-61
2022/01/23 14:48:48;;;;;;;34.53;18.92;;;;;;;8.35;75.04;103498.66;5053790;28;20482;-65
2022/01/23 14:51:19;;;;;;;34.78;19.67;;;;;;;8.31;74.88;103497.56;5053804;28;20108;-63
2022/01/23 14:53:45;;;;;;;31.60;19.02;;;;;;;8.28;74.46;103489.47;5053557;28;20167;-64
2022/01/23 14:56:13;;;;;;;34.28;20.17;;;;;;;8.27;74.57;103496.47;5053657;28;20104;-63